createdAt,value
2019-01-26T00:00:14.929Z,1009.18
2019-01-26T00:01:14.948Z,1009.14
2019-01-26T00:02:14.967Z,1009.07
2019-01-26T00:03:15.038Z,1009.11
2019-01-26T00:04:15.006Z,1009.08
2019-01-26T00:05:15.026Z,1009.08
2019-01-26T00:06:15.042Z,1009.00
2019-01-26T00:07:15.060Z,1009.03
2019-01-26T00:08:15.079Z,1009.01
2019-01-26T00:09:15.098Z,1008.98
2019-01-26T00:10:15.119Z,1008.96
2019-01-26T00:11:15.135Z,1008.92
2019-01-26T00:12:15.154Z,1008.95
2019-01-26T00:13:15.173Z,1008.92
2019-01-26T00:14:15.196Z,1008.94
2019-01-26T00:15:15.211Z,1008.92
2019-01-26T00:16:21.002Z,1008.95
2019-01-26T00:17:15.249Z,1008.92
2019-01-26T00:18:15.269Z,1008.93
2019-01-26T00:19:15.286Z,1008.92
2019-01-26T00:20:15.304Z,1008.88
2019-01-26T00:21:15.327Z,1008.88
2019-01-26T00:22:15.348Z,1008.86
2019-01-26T00:23:15.360Z,1008.85
2019-01-26T00:24:15.381Z,1008.80
2019-01-26T00:25:15.402Z,1008.80
2019-01-26T00:26:15.419Z,1008.77
2019-01-26T00:27:15.436Z,1008.74
2019-01-26T00:28:15.455Z,1008.76
2019-01-26T00:29:15.474Z,1008.74
2019-01-26T00:30:15.493Z,1008.78
2019-01-26T00:31:15.510Z,1008.77
2019-01-26T00:32:15.532Z,1008.72
2019-01-26T00:33:15.551Z,1008.71
2019-01-26T00:34:15.569Z,1008.72
2019-01-26T00:35:15.589Z,1008.67
2019-01-26T00:36:15.611Z,1008.67
2019-01-26T00:37:15.627Z,1008.66
2019-01-26T00:38:15.645Z,1008.59
2019-01-26T00:39:15.661Z,1008.58
2019-01-26T00:40:15.681Z,1008.59
2019-01-26T00:41:15.707Z,1008.57
2019-01-26T00:42:15.720Z,1008.57
2019-01-26T00:43:15.737Z,1008.52
2019-01-26T00:44:15.756Z,1008.54
2019-01-26T00:45:15.778Z,1008.49
2019-01-26T00:46:15.793Z,1008.52
2019-01-26T00:47:15.819Z,1008.49
2019-01-26T00:48:15.834Z,1008.45
2019-01-26T00:49:15.851Z,1008.43
2019-01-26T00:50:15.869Z,1008.45
2019-01-26T00:51:17.316Z,1008.44
2019-01-26T00:52:15.907Z,1008.40
2019-01-26T00:53:15.926Z,1008.41
2019-01-26T00:54:15.944Z,1008.41
2019-01-26T00:55:15.966Z,1008.40
2019-01-26T00:56:15.982Z,1008.33
2019-01-26T00:57:16.001Z,1008.35
2019-01-26T00:58:16.018Z,1008.32
2019-01-26T00:59:16.042Z,1008.28
2019-01-26T01:00:16.062Z,1008.25
2019-01-26T01:01:16.079Z,1008.27
2019-01-26T01:02:16.101Z,1008.25
2019-01-26T01:03:16.114Z,1008.23
2019-01-26T01:04:16.132Z,1008.19
2019-01-26T01:05:16.151Z,1008.20
2019-01-26T01:06:16.171Z,1008.16
2019-01-26T01:07:16.188Z,1008.16
2019-01-26T01:08:16.211Z,1008.08
2019-01-26T01:09:16.231Z,1008.11
2019-01-26T01:10:16.247Z,1008.07
2019-01-26T01:11:16.268Z,1008.05
2019-01-26T01:12:16.283Z,1008.06
2019-01-26T01:13:16.302Z,1008.07
2019-01-26T01:14:16.321Z,1008.02
2019-01-26T01:15:16.339Z,1008.02
2019-01-26T01:16:16.358Z,1007.99
2019-01-26T01:17:16.377Z,1007.99
2019-01-26T01:18:16.403Z,1007.97
2019-01-26T01:19:16.420Z,1007.97
2019-01-26T01:20:16.434Z,1007.96
2019-01-26T01:21:16.457Z,1007.89
2019-01-26T01:22:16.472Z,1007.92
2019-01-26T01:23:16.495Z,1007.89
2019-01-26T01:24:16.511Z,1007.90
2019-01-26T01:25:16.528Z,1007.92
2019-01-26T01:26:16.550Z,1007.88
2019-01-26T01:27:16.565Z,1007.85
2019-01-26T01:28:16.586Z,1007.88
2019-01-26T01:29:16.604Z,1007.84
2019-01-26T01:30:16.622Z,1007.83
2019-01-26T01:31:16.641Z,1007.86
2019-01-26T01:32:16.660Z,1007.84
2019-01-26T01:33:16.683Z,1007.84
2019-01-26T01:34:16.699Z,1007.80
2019-01-26T01:35:16.719Z,1007.81
2019-01-26T01:36:16.736Z,1007.82
2019-01-26T01:37:16.763Z,1007.74
2019-01-26T01:38:16.774Z,1007.70
2019-01-26T01:39:16.817Z,1007.71
2019-01-26T01:40:16.811Z,1007.70
2019-01-26T01:41:16.832Z,1007.68
2019-01-26T01:42:16.849Z,1007.65
2019-01-26T01:43:16.869Z,1007.65
2019-01-26T01:44:16.888Z,1007.65
2019-01-26T01:45:16.906Z,1007.60
2019-01-26T01:46:16.924Z,1007.61
2019-01-26T01:47:16.945Z,1007.59
2019-01-26T01:48:16.965Z,1007.56
2019-01-26T01:49:16.982Z,1007.55
2019-01-26T01:50:17.002Z,1007.57
2019-01-26T01:51:17.018Z,1007.53
2019-01-26T01:52:17.041Z,1007.55
2019-01-26T01:53:17.058Z,1007.53
2019-01-26T01:54:17.076Z,1007.55
2019-01-26T01:55:17.093Z,1007.53
2019-01-26T01:56:17.112Z,1007.52
2019-01-26T01:57:17.132Z,1007.50
2019-01-26T01:58:17.153Z,1007.49
2019-01-26T01:59:17.170Z,1007.52
2019-01-26T02:00:17.190Z,1007.48
2019-01-26T02:01:17.211Z,1007.47
2019-01-26T02:02:17.226Z,1007.45
2019-01-26T02:03:17.249Z,1007.40
2019-01-26T02:04:17.264Z,1007.39
2019-01-26T02:05:17.285Z,1007.33
2019-01-26T02:06:17.300Z,1007.35
2019-01-26T02:07:17.323Z,1007.34
2019-01-26T02:08:17.339Z,1007.33
2019-01-26T02:09:17.359Z,1007.31
2019-01-26T02:10:17.380Z,1007.28
2019-01-26T02:11:17.397Z,1007.29
2019-01-26T02:12:17.416Z,1007.26
2019-01-26T02:13:17.435Z,1007.20
2019-01-26T02:14:17.453Z,1007.18
2019-01-26T02:15:17.472Z,1007.19
2019-01-26T02:16:17.491Z,1007.16
2019-01-26T02:17:17.512Z,1007.12
2019-01-26T02:18:17.528Z,1007.14
2019-01-26T02:19:17.547Z,1007.10
2019-01-26T02:20:17.573Z,1007.07
2019-01-26T02:21:17.586Z,1007.08
2019-01-26T02:22:17.604Z,1007.06
2019-01-26T02:23:17.625Z,1007.02
2019-01-26T02:24:17.644Z,1006.97
2019-01-26T02:25:17.665Z,1006.97
2019-01-26T02:26:17.682Z,1006.97
2019-01-26T02:27:17.702Z,1006.97
2019-01-26T02:28:17.719Z,1006.99
2019-01-26T02:29:17.740Z,1006.99
2019-01-26T02:30:17.782Z,1007.00
2019-01-26T02:31:17.775Z,1006.94
2019-01-26T02:32:17.799Z,1006.91
2019-01-26T02:33:17.813Z,1006.92
2019-01-26T02:34:17.832Z,1006.93
2019-01-26T02:35:17.853Z,1006.91
2019-01-26T02:36:17.870Z,1006.90
2019-01-26T02:37:17.889Z,1006.93
2019-01-26T02:38:17.909Z,1006.87
2019-01-26T02:39:17.966Z,1006.88
2019-01-26T02:40:17.947Z,1006.87
2019-01-26T02:41:17.968Z,1006.85
2019-01-26T02:42:17.984Z,1006.88
2019-01-26T02:43:18.002Z,1006.83
2019-01-26T02:44:18.025Z,1006.84
2019-01-26T02:45:18.041Z,1006.81
2019-01-26T02:46:18.059Z,1006.80
2019-01-26T02:47:18.080Z,1006.79
2019-01-26T02:48:18.101Z,1006.76
2019-01-26T02:49:18.120Z,1006.75
2019-01-26T02:50:18.143Z,1006.76
2019-01-26T02:51:18.157Z,1006.72
2019-01-26T02:52:18.176Z,1006.72
2019-01-26T02:53:18.197Z,1006.71
2019-01-26T02:54:18.211Z,1006.71
2019-01-26T02:55:18.232Z,1006.71
2019-01-26T02:56:18.250Z,1006.68
2019-01-26T02:57:18.271Z,1006.66
2019-01-26T02:58:18.287Z,1006.64
2019-01-26T02:59:18.312Z,1006.62
2019-01-26T03:00:18.332Z,1006.65
2019-01-26T03:01:18.349Z,1006.64
2019-01-26T03:02:18.364Z,1006.68
2019-01-26T03:03:18.383Z,1006.64
2019-01-26T03:04:18.403Z,1006.67
2019-01-26T03:05:18.423Z,1006.67
2019-01-26T03:06:18.445Z,1006.65
2019-01-26T03:07:18.461Z,1006.57
2019-01-26T03:08:18.478Z,1006.60
2019-01-26T03:09:18.501Z,1006.57
2019-01-26T03:10:18.527Z,1006.53
2019-01-26T03:11:18.539Z,1006.52
2019-01-26T03:12:18.565Z,1006.53
2019-01-26T03:13:18.576Z,1006.50
2019-01-26T03:14:18.595Z,1006.43
2019-01-26T03:15:18.612Z,1006.46
2019-01-26T03:16:18.632Z,1006.44
2019-01-26T03:17:18.654Z,1006.43
2019-01-26T03:18:18.668Z,1006.41
2019-01-26T03:19:18.692Z,1006.43
2019-01-26T03:20:18.713Z,1006.41
2019-01-26T03:21:18.727Z,1006.42
2019-01-26T03:22:18.753Z,1006.39
2019-01-26T03:23:18.767Z,1006.39
2019-01-26T03:24:18.787Z,1006.38
2019-01-26T03:25:18.814Z,1006.38
2019-01-26T03:26:18.822Z,1006.36
2019-01-26T03:27:18.841Z,1006.36
2019-01-26T03:28:18.863Z,1006.39
2019-01-26T03:29:18.883Z,1006.33
2019-01-26T03:30:18.906Z,1006.34
2019-01-26T03:31:18.921Z,1006.35
2019-01-26T03:32:19.035Z,1006.34
2019-01-26T03:33:18.964Z,1006.30
2019-01-26T03:34:18.978Z,1006.28
2019-01-26T03:35:19.003Z,1006.28
2019-01-26T03:36:19.015Z,1006.25
2019-01-26T03:37:19.034Z,1006.25
2019-01-26T03:38:19.053Z,1006.23
2019-01-26T03:39:19.071Z,1006.19
2019-01-26T03:40:19.093Z,1006.18
2019-01-26T03:41:19.110Z,1006.18
2019-01-26T03:42:19.129Z,1006.20
2019-01-26T03:43:19.149Z,1006.17
2019-01-26T03:44:19.169Z,1006.16
2019-01-26T03:45:19.190Z,1006.16
2019-01-26T03:46:19.206Z,1006.18
2019-01-26T03:47:19.227Z,1006.15
2019-01-26T03:48:19.246Z,1006.16
2019-01-26T03:49:19.263Z,1006.13
2019-01-26T03:50:19.283Z,1006.11
2019-01-26T03:51:19.304Z,1006.14
2019-01-26T03:52:19.319Z,1006.08
2019-01-26T03:53:19.342Z,1006.10
2019-01-26T03:54:19.358Z,1006.08
2019-01-26T03:55:19.380Z,1006.09
2019-01-26T03:56:19.398Z,1006.07
2019-01-26T03:57:20.290Z,1006.05
2019-01-26T03:58:19.438Z,1006.01
2019-01-26T03:59:19.456Z,1006.00
2019-01-26T04:00:19.476Z,1006.01
2019-01-26T04:01:19.495Z,1005.97
2019-01-26T04:02:19.514Z,1005.96
2019-01-26T04:03:19.537Z,1005.95
2019-01-26T04:04:19.550Z,1005.94
2019-01-26T04:05:19.569Z,1005.96
2019-01-26T04:06:19.588Z,1005.95
2019-01-26T04:07:19.612Z,1005.93
2019-01-26T04:08:19.630Z,1005.96
2019-01-26T04:09:19.646Z,1005.94
2019-01-26T04:10:19.668Z,1005.93
2019-01-26T04:11:19.686Z,1005.94
2019-01-26T04:12:19.705Z,1005.93
2019-01-26T04:13:19.723Z,1005.98
2019-01-26T04:14:19.743Z,1005.91
2019-01-26T04:15:19.759Z,1005.91
2019-01-26T04:16:19.781Z,1005.90
2019-01-26T04:17:21.950Z,1005.87
2019-01-26T04:18:19.818Z,1005.85
2019-01-26T04:19:19.836Z,1005.82
2019-01-26T04:20:19.922Z,1005.82
2019-01-26T04:21:19.878Z,1005.82
2019-01-26T04:22:19.899Z,1005.83
2019-01-26T04:23:19.913Z,1005.82
2019-01-26T04:24:19.935Z,1005.79
2019-01-26T04:25:19.955Z,1005.82
2019-01-26T04:26:19.972Z,1005.79
2019-01-26T04:27:19.994Z,1005.80
2019-01-26T04:28:20.012Z,1005.82
2019-01-26T04:29:20.031Z,1005.81
2019-01-26T04:30:20.047Z,1005.81
2019-01-26T04:31:20.066Z,1005.79
2019-01-26T04:32:20.092Z,1005.79
2019-01-26T04:33:20.108Z,1005.74
2019-01-26T04:34:20.125Z,1005.71
2019-01-26T04:35:20.152Z,1005.73
2019-01-26T04:36:20.165Z,1005.71
2019-01-26T04:37:20.185Z,1005.74
2019-01-26T04:38:20.203Z,1005.69
2019-01-26T04:39:20.220Z,1005.72
2019-01-26T04:40:20.242Z,1005.69
2019-01-26T04:41:20.262Z,1005.69
2019-01-26T04:42:20.280Z,1005.69
2019-01-26T04:43:20.297Z,1005.72
2019-01-26T04:44:20.317Z,1005.72
2019-01-26T04:45:20.336Z,1005.69
2019-01-26T04:46:20.354Z,1005.65
2019-01-26T04:47:20.376Z,1005.65
2019-01-26T04:48:20.399Z,1005.63
2019-01-26T04:49:20.413Z,1005.65
2019-01-26T04:50:20.433Z,1005.61
2019-01-26T04:51:20.451Z,1005.63
2019-01-26T04:52:20.469Z,1005.60
2019-01-26T04:53:20.490Z,1005.57
2019-01-26T04:54:20.517Z,1005.60
2019-01-26T04:55:20.533Z,1005.60
2019-01-26T04:56:20.548Z,1005.57
2019-01-26T04:57:20.563Z,1005.56
2019-01-26T04:58:20.585Z,1005.53
2019-01-26T04:59:20.603Z,1005.53
2019-01-26T05:00:20.626Z,1005.54
2019-01-26T05:01:20.640Z,1005.56
2019-01-26T05:02:20.662Z,1005.48
2019-01-26T05:03:20.682Z,1005.48
2019-01-26T05:04:20.704Z,1005.49
2019-01-26T05:05:20.718Z,1005.46
2019-01-26T05:06:20.738Z,1005.45
2019-01-26T05:07:20.757Z,1005.43
2019-01-26T05:08:20.776Z,1005.43
2019-01-26T05:09:20.792Z,1005.43
2019-01-26T05:10:20.811Z,1005.44
2019-01-26T05:11:20.833Z,1005.42
2019-01-26T05:12:20.850Z,1005.41
2019-01-26T05:13:20.869Z,1005.40
2019-01-26T05:14:20.886Z,1005.45
2019-01-26T05:15:20.905Z,1005.37
2019-01-26T05:16:20.928Z,1005.36
2019-01-26T05:17:20.946Z,1005.37
2019-01-26T05:18:20.964Z,1005.36
2019-01-26T05:19:20.981Z,1005.35
2019-01-26T05:20:21.004Z,1005.37
2019-01-26T05:21:21.020Z,1005.36
2019-01-26T05:22:21.040Z,1005.42
2019-01-26T05:23:21.058Z,1005.39
2019-01-26T05:24:21.076Z,1005.30
2019-01-26T05:25:21.096Z,1005.34
2019-01-26T05:26:21.114Z,1005.34
2019-01-26T05:27:21.132Z,1005.33
2019-01-26T05:28:21.160Z,1005.31
2019-01-26T05:29:21.170Z,1005.34
2019-01-26T05:30:21.193Z,1005.31
2019-01-26T05:31:21.208Z,1005.27
2019-01-26T05:32:21.225Z,1005.30
2019-01-26T05:33:21.244Z,1005.26
2019-01-26T05:34:21.263Z,1005.25
2019-01-26T05:35:21.279Z,1005.25
2019-01-26T05:36:21.302Z,1005.30
2019-01-26T05:37:21.317Z,1005.24
2019-01-26T05:38:21.345Z,1005.24
2019-01-26T05:39:21.354Z,1005.19
2019-01-26T05:40:21.373Z,1005.19
2019-01-26T05:41:21.391Z,1005.16
2019-01-26T05:42:21.411Z,1005.20
2019-01-26T05:43:21.430Z,1005.17
2019-01-26T05:44:21.447Z,1005.19
2019-01-26T05:45:21.482Z,1005.19
2019-01-26T05:46:21.483Z,1005.16
2019-01-26T05:47:21.506Z,1005.16
2019-01-26T05:48:21.519Z,1005.17
2019-01-26T05:49:21.539Z,1005.13
2019-01-26T05:50:21.557Z,1005.13
2019-01-26T05:51:21.577Z,1005.15
2019-01-26T05:52:21.597Z,1005.13
2019-01-26T05:53:21.611Z,1005.14
2019-01-26T05:54:21.629Z,1005.12
2019-01-26T05:55:21.646Z,1005.07
2019-01-26T05:56:21.667Z,1005.09
2019-01-26T05:57:21.684Z,1005.09
2019-01-26T05:58:21.703Z,1005.07
2019-01-26T05:59:21.720Z,1005.05
2019-01-26T06:00:21.744Z,1005.04
2019-01-26T06:01:21.761Z,1005.07
2019-01-26T06:02:21.774Z,1005.05
2019-01-26T06:03:21.794Z,1005.01
2019-01-26T06:04:21.812Z,1005.04
2019-01-26T06:05:21.831Z,1005.00
2019-01-26T06:06:21.846Z,1005.01
2019-01-26T06:07:21.864Z,1005.02
2019-01-26T06:08:21.884Z,1005.04
2019-01-26T06:09:21.902Z,1005.03
2019-01-26T06:10:21.945Z,1004.99
2019-01-26T06:11:21.938Z,1005.00
2019-01-26T06:12:21.958Z,1005.02
2019-01-26T06:13:21.974Z,1005.01
2019-01-26T06:14:21.992Z,1005.02
2019-01-26T06:15:22.021Z,1005.02
2019-01-26T06:16:22.030Z,1005.05
2019-01-26T06:17:22.049Z,1005.05
2019-01-26T06:18:22.065Z,1005.06
2019-01-26T06:19:22.085Z,1005.06
2019-01-26T06:20:22.100Z,1005.04
2019-01-26T06:21:22.119Z,1005.01
2019-01-26T06:22:22.137Z,1005.06
2019-01-26T06:23:22.156Z,1005.02
2019-01-26T06:24:22.172Z,1005.05
2019-01-26T06:25:22.194Z,1005.06
2019-01-26T06:26:22.208Z,1005.09
2019-01-26T06:27:22.225Z,1005.09
2019-01-26T06:28:22.246Z,1005.08
2019-01-26T06:29:22.264Z,1005.12
2019-01-26T06:30:22.295Z,1005.06
2019-01-26T06:31:22.296Z,1005.07
2019-01-26T06:32:22.315Z,1005.06
2019-01-26T06:33:22.337Z,1005.08
2019-01-26T06:34:22.352Z,1005.08
2019-01-26T06:35:22.369Z,1005.12
2019-01-26T06:36:22.385Z,1005.06
2019-01-26T06:37:22.416Z,1005.07
2019-01-26T06:38:22.422Z,1005.08
2019-01-26T06:39:22.442Z,1005.04
2019-01-26T06:40:22.459Z,1005.04
2019-01-26T06:41:22.483Z,1005.05
2019-01-26T06:42:22.495Z,1005.04
2019-01-26T06:43:22.509Z,1005.03
2019-01-26T06:44:22.526Z,1005.05
2019-01-26T06:45:22.545Z,1005.01
2019-01-26T06:46:22.560Z,1005.03
2019-01-26T06:47:22.581Z,1004.97
2019-01-26T06:48:22.596Z,1004.99
2019-01-26T06:49:22.616Z,1004.97
2019-01-26T06:50:22.634Z,1005.01
2019-01-26T06:51:22.649Z,1004.97
2019-01-26T06:52:22.671Z,1004.97
2019-01-26T06:53:22.686Z,1004.99
2019-01-26T06:54:22.701Z,1005.01
2019-01-26T06:55:22.718Z,1004.98
2019-01-26T06:56:22.746Z,1005.01
2019-01-26T06:57:22.755Z,1004.98
2019-01-26T06:58:22.770Z,1005.02
2019-01-26T06:59:22.790Z,1005.04
2019-01-26T07:00:22.805Z,1005.02
2019-01-26T07:01:22.824Z,1005.04
2019-01-26T07:02:22.842Z,1004.98
2019-01-26T07:03:22.859Z,1005.01
2019-01-26T07:04:22.875Z,1004.97
2019-01-26T07:05:22.945Z,1004.98
2019-01-26T07:06:22.908Z,1005.03
2019-01-26T07:07:22.927Z,1005.02
2019-01-26T07:08:22.948Z,1005.00
2019-01-26T07:09:22.962Z,1004.97
2019-01-26T07:10:22.978Z,1004.98
2019-01-26T07:11:22.996Z,1004.95
2019-01-26T07:12:23.014Z,1004.97
2019-01-26T07:13:23.034Z,1004.97
2019-01-26T07:14:23.050Z,1004.99
2019-01-26T07:15:23.066Z,1005.00
2019-01-26T07:16:23.086Z,1005.02
2019-01-26T07:17:23.102Z,1004.99
2019-01-26T07:18:23.117Z,1005.00
2019-01-26T07:19:23.136Z,1004.96
2019-01-26T07:20:23.153Z,1004.99
2019-01-26T07:21:23.173Z,1004.97
2019-01-26T07:22:23.186Z,1004.93
2019-01-26T07:23:23.206Z,1004.97
2019-01-26T07:24:23.224Z,1004.93
2019-01-26T07:25:23.241Z,1004.94
2019-01-26T07:26:23.258Z,1004.95
2019-01-26T07:27:23.274Z,1004.96
2019-01-26T07:28:23.319Z,1004.93
2019-01-26T07:29:23.310Z,1004.98
2019-01-26T07:30:23.327Z,1004.98
2019-01-26T07:31:23.347Z,1005.00
2019-01-26T07:32:23.362Z,1004.97
2019-01-26T07:33:23.385Z,1004.98
2019-01-26T07:34:23.397Z,1004.97
2019-01-26T07:35:23.417Z,1004.98
2019-01-26T07:36:23.437Z,1004.99
2019-01-26T07:37:23.451Z,1005.05
2019-01-26T07:38:23.470Z,1005.05
2019-01-26T07:39:23.490Z,1005.03
2019-01-26T07:40:23.509Z,1005.10
2019-01-26T07:41:23.525Z,1005.10
2019-01-26T07:42:23.543Z,1005.10
2019-01-26T07:43:23.563Z,1005.09
2019-01-26T07:44:23.582Z,1005.06
2019-01-26T07:45:23.600Z,1005.07
2019-01-26T07:46:23.620Z,1005.06
2019-01-26T07:47:23.636Z,1005.07
2019-01-26T07:48:23.655Z,1005.01
2019-01-26T07:49:23.674Z,1005.02
2019-01-26T07:50:23.692Z,1005.02
2019-01-26T07:51:23.713Z,1005.03
2019-01-26T07:52:23.732Z,1005.07
2019-01-26T07:53:23.754Z,1005.04
2019-01-26T07:54:23.770Z,1005.05
2019-01-26T07:55:23.791Z,1005.06
2019-01-26T07:56:23.809Z,1005.07
2019-01-26T07:57:23.831Z,1005.05
2019-01-26T07:58:23.856Z,1005.08
2019-01-26T07:59:23.868Z,1005.09
2019-01-26T08:00:23.888Z,1005.14
2019-01-26T08:01:23.908Z,1005.17
2019-01-26T08:02:23.927Z,1005.12
2019-01-26T08:03:23.952Z,1005.16
2019-01-26T08:04:23.968Z,1005.15
2019-01-26T08:05:23.992Z,1005.21
2019-01-26T08:06:24.011Z,1005.19
2019-01-26T08:07:24.028Z,1005.18
2019-01-26T08:08:24.049Z,1005.17
2019-01-26T08:09:24.072Z,1005.16
2019-01-26T08:10:24.093Z,1005.18
2019-01-26T08:11:24.112Z,1005.17
2019-01-26T08:12:24.133Z,1005.20
2019-01-26T08:13:24.150Z,1005.17
2019-01-26T08:14:24.172Z,1005.19
2019-01-26T08:15:24.191Z,1005.18
2019-01-26T08:16:24.218Z,1005.17
2019-01-26T08:17:24.236Z,1005.15
2019-01-26T08:18:24.416Z,1005.17
2019-01-26T08:19:24.278Z,1005.12
2019-01-26T08:20:24.299Z,1005.12
2019-01-26T08:21:24.324Z,1005.12
2019-01-26T08:22:24.342Z,1005.10
2019-01-26T08:23:24.364Z,1005.11
2019-01-26T08:24:24.384Z,1005.13
2019-01-26T08:25:24.404Z,1005.12
2019-01-26T08:26:24.427Z,1005.09
2019-01-26T08:27:24.451Z,1005.08
2019-01-26T08:28:24.476Z,1005.06
2019-01-26T08:29:24.496Z,1005.03
2019-01-26T08:30:24.514Z,1005.06
2019-01-26T08:31:24.537Z,1005.10
2019-01-26T08:32:24.567Z,1005.09
2019-01-26T08:33:24.583Z,1005.08
2019-01-26T08:34:24.604Z,1005.09
2019-01-26T08:35:24.630Z,1005.11
2019-01-26T08:36:24.650Z,1005.10
2019-01-26T08:37:24.672Z,1005.11
2019-01-26T08:38:24.694Z,1005.13
2019-01-26T08:39:24.717Z,1005.14
2019-01-26T08:40:24.740Z,1005.09
2019-01-26T08:41:24.762Z,1005.06
2019-01-26T08:42:24.785Z,1005.06
2019-01-26T08:43:24.809Z,1005.15
2019-01-26T08:44:24.834Z,1005.14
2019-01-26T08:45:24.858Z,1005.09
2019-01-26T08:46:24.878Z,1005.12
2019-01-26T08:47:24.902Z,1005.14
2019-01-26T08:48:31.049Z,1005.15
2019-01-26T08:49:24.949Z,1005.13
2019-01-26T08:50:24.975Z,1005.13
2019-01-26T08:51:24.996Z,1005.16
2019-01-26T08:52:25.024Z,1005.19
2019-01-26T08:53:25.044Z,1005.14
2019-01-26T08:54:25.067Z,1005.16
2019-01-26T08:55:25.090Z,1005.12
2019-01-26T08:56:25.114Z,1005.12
2019-01-26T08:57:25.139Z,1005.12
2019-01-26T08:58:25.161Z,1005.13
2019-01-26T08:59:25.192Z,1005.14
2019-01-26T09:00:25.211Z,1005.12
2019-01-26T09:01:25.237Z,1005.11
2019-01-26T09:02:25.625Z,1005.14
2019-01-26T09:03:25.284Z,1005.11
2019-01-26T09:04:25.311Z,1005.12
2019-01-26T09:05:25.336Z,1005.06
2019-01-26T09:06:25.362Z,1005.07
2019-01-26T09:07:25.381Z,1005.08
2019-01-26T09:08:25.408Z,1005.05
2019-01-26T09:09:25.434Z,1005.05
2019-01-26T09:10:25.455Z,1005.05
2019-01-26T09:11:25.489Z,1005.00
2019-01-26T09:12:25.506Z,1005.06
2019-01-26T09:13:25.528Z,1005.08
2019-01-26T09:14:25.552Z,1005.07
2019-01-26T09:15:25.579Z,1005.11
2019-01-26T09:16:25.607Z,1005.08
2019-01-26T09:17:25.641Z,1005.04
2019-01-26T09:18:25.653Z,1005.07
2019-01-26T09:19:25.678Z,1005.03
2019-01-26T09:20:25.704Z,1005.05
2019-01-26T09:21:25.730Z,1005.03
2019-01-26T09:22:25.753Z,1004.99
2019-01-26T09:23:25.778Z,1004.99
2019-01-26T09:24:25.805Z,1005.02
2019-01-26T09:25:25.831Z,1004.94
2019-01-26T09:26:25.854Z,1004.98
2019-01-26T09:27:25.881Z,1004.94
2019-01-26T09:28:25.904Z,1004.94
2019-01-26T09:29:25.930Z,1004.93
2019-01-26T09:30:25.956Z,1004.94
2019-01-26T09:31:25.981Z,1004.92
2019-01-26T09:32:26.005Z,1004.92
2019-01-26T09:33:26.033Z,1004.94
2019-01-26T09:34:26.056Z,1004.95
2019-01-26T09:35:26.081Z,1004.95
2019-01-26T09:36:26.114Z,1004.97
2019-01-26T09:37:26.133Z,1004.95
2019-01-26T09:38:26.158Z,1004.96
2019-01-26T09:39:26.183Z,1004.93
2019-01-26T09:40:26.211Z,1004.94
2019-01-26T09:41:26.241Z,1004.90
2019-01-26T09:42:26.262Z,1004.92
2019-01-26T09:43:26.286Z,1004.93
2019-01-26T09:44:26.313Z,1004.93
2019-01-26T09:45:26.341Z,1004.92
2019-01-26T09:46:26.363Z,1004.94
2019-01-26T09:47:26.390Z,1004.91
2019-01-26T09:48:26.417Z,1004.90
2019-01-26T09:49:26.445Z,1004.89
2019-01-26T09:50:26.469Z,1004.87
2019-01-26T09:51:26.494Z,1004.92
2019-01-26T09:52:26.521Z,1004.89
2019-01-26T09:53:26.547Z,1004.87
2019-01-26T09:54:26.574Z,1004.86
2019-01-26T09:55:26.599Z,1004.88
2019-01-26T09:56:26.625Z,1004.85
2019-01-26T09:57:26.653Z,1004.81
2019-01-26T09:58:26.682Z,1004.78
2019-01-26T09:59:26.703Z,1004.83
2019-01-26T10:00:26.731Z,1004.80
2019-01-26T10:01:26.759Z,1004.78
2019-01-26T10:02:26.782Z,1004.76
2019-01-26T10:03:26.839Z,1004.74
2019-01-26T10:04:26.835Z,1004.76
2019-01-26T10:05:27.766Z,1004.76
2019-01-26T10:06:26.890Z,1004.74
2019-01-26T10:07:26.914Z,1004.74
2019-01-26T10:08:26.941Z,1004.75
2019-01-26T10:09:26.970Z,1004.71
2019-01-26T10:10:26.992Z,1004.71
2019-01-26T10:11:27.027Z,1004.70
2019-01-26T10:12:27.050Z,1004.68
2019-01-26T10:13:27.073Z,1004.65
2019-01-26T10:14:27.102Z,1004.65
2019-01-26T10:15:27.125Z,1004.67
2019-01-26T10:16:27.152Z,1004.65
2019-01-26T10:17:27.185Z,1004.66
2019-01-26T10:18:27.206Z,1004.65
2019-01-26T10:19:27.233Z,1004.62
2019-01-26T10:20:27.262Z,1004.63
2019-01-26T10:21:27.285Z,1004.65
2019-01-26T10:22:27.314Z,1004.62
2019-01-26T10:23:27.336Z,1004.64
2019-01-26T10:24:27.368Z,1004.67
2019-01-26T10:25:27.393Z,1004.66
2019-01-26T10:26:27.419Z,1004.58
2019-01-26T10:27:27.449Z,1004.64
2019-01-26T10:28:27.477Z,1004.63
2019-01-26T10:29:27.500Z,1004.63
2019-01-26T10:30:27.523Z,1004.59
2019-01-26T10:31:27.558Z,1004.60
2019-01-26T10:32:27.579Z,1004.56
2019-01-26T10:33:27.611Z,1004.53
2019-01-26T10:34:27.632Z,1004.58
2019-01-26T10:35:27.658Z,1004.56
2019-01-26T10:36:27.685Z,1004.57
2019-01-26T10:37:27.712Z,1004.57
2019-01-26T10:38:27.739Z,1004.53
2019-01-26T10:39:27.768Z,1004.53
2019-01-26T10:40:27.798Z,1004.53
2019-01-26T10:41:27.819Z,1004.48
2019-01-26T10:42:27.848Z,1004.48
2019-01-26T10:43:27.874Z,1004.46
2019-01-26T10:44:27.901Z,1004.46
2019-01-26T10:45:27.926Z,1004.47
2019-01-26T10:46:27.956Z,1004.49
2019-01-26T10:47:27.981Z,1004.45
2019-01-26T10:48:28.007Z,1004.48
2019-01-26T10:49:28.035Z,1004.49
2019-01-26T10:50:28.060Z,1004.44
2019-01-26T10:51:28.092Z,1004.46
2019-01-26T10:52:28.118Z,1004.43
2019-01-26T10:53:28.143Z,1004.40
2019-01-26T10:54:28.169Z,1004.36
2019-01-26T10:55:28.196Z,1004.39
2019-01-26T10:56:28.225Z,1004.34
2019-01-26T10:57:28.248Z,1004.35
2019-01-26T10:58:28.280Z,1004.36
2019-01-26T10:59:28.306Z,1004.39
2019-01-26T11:00:28.333Z,1004.36
2019-01-26T11:01:28.355Z,1004.36
2019-01-26T11:02:28.386Z,1004.37
2019-01-26T11:03:28.410Z,1004.37
2019-01-26T11:04:28.437Z,1004.33
2019-01-26T11:05:28.467Z,1004.35
2019-01-26T11:06:28.492Z,1004.35
2019-01-26T11:07:28.526Z,1004.35
2019-01-26T11:08:28.548Z,1004.33
2019-01-26T11:09:28.575Z,1004.33
2019-01-26T11:10:28.603Z,1004.33
2019-01-26T11:11:28.625Z,1004.32
2019-01-26T11:12:28.653Z,1004.32
2019-01-26T11:13:28.679Z,1004.30
2019-01-26T11:14:28.705Z,1004.33
2019-01-26T11:15:28.736Z,1004.35
2019-01-26T11:16:28.760Z,1004.31
2019-01-26T11:17:28.787Z,1004.35
2019-01-26T11:18:28.815Z,1004.31
2019-01-26T11:19:28.839Z,1004.27
2019-01-26T11:20:28.866Z,1004.27
2019-01-26T11:21:28.894Z,1004.29
2019-01-26T11:22:28.919Z,1004.30
2019-01-26T11:23:28.949Z,1004.30
2019-01-26T11:24:28.973Z,1004.26
2019-01-26T11:25:29.005Z,1004.32
2019-01-26T11:26:29.030Z,1004.30
2019-01-26T11:27:29.052Z,1004.29
2019-01-26T11:28:29.081Z,1004.28
2019-01-26T11:29:29.110Z,1004.27
2019-01-26T11:30:29.139Z,1004.27
2019-01-26T11:31:29.161Z,1004.24
2019-01-26T11:32:29.186Z,1004.23
2019-01-26T11:33:29.216Z,1004.19
2019-01-26T11:34:29.244Z,1004.19
2019-01-26T11:35:29.270Z,1004.12
2019-01-26T11:36:29.297Z,1004.14
2019-01-26T11:37:29.326Z,1004.11
2019-01-26T11:38:29.347Z,1004.11
2019-01-26T11:39:29.374Z,1004.14
2019-01-26T11:40:29.401Z,1004.15
2019-01-26T11:41:29.427Z,1004.16
2019-01-26T11:42:29.461Z,1004.15
2019-01-26T11:43:29.480Z,1004.19
2019-01-26T11:44:29.506Z,1004.18
2019-01-26T11:45:29.532Z,1004.17
2019-01-26T11:46:29.558Z,1004.21
2019-01-26T11:47:29.590Z,1004.24
2019-01-26T11:48:29.613Z,1004.23
2019-01-26T11:49:29.640Z,1004.22
2019-01-26T11:50:29.665Z,1004.21
2019-01-26T11:51:29.690Z,1004.17
2019-01-26T11:52:29.715Z,1004.12
2019-01-26T11:53:29.747Z,1004.10
2019-01-26T11:54:29.771Z,1004.05
2019-01-26T11:55:29.792Z,1004.05
2019-01-26T11:56:29.823Z,1004.04
2019-01-26T11:57:29.849Z,1004.06
2019-01-26T11:58:29.870Z,1004.01
2019-01-26T11:59:29.897Z,1004.03
2019-01-26T12:00:29.923Z,1004.01
2019-01-26T12:01:29.949Z,1004.01
2019-01-26T12:02:30.153Z,1003.99
2019-01-26T12:03:29.999Z,1003.98
2019-01-26T12:04:30.026Z,1004.00
2019-01-26T12:05:30.044Z,1004.01